Time;durP1;ratioP1;P1;durP2;ratioP2;P2;SDS_P1;SDS_P2;PMS_P1;PMS_P2;Temp;Humidity;BMP_temperature;BMP_pressure;BME280_temperature;BME280_humidity;BME280_pressure;Samples;Min_cycle;Max_cycle;Signal;HPM_P1;HPM_P2
2022/06/29 00:01:31;;;;;;;1.17;0.93;;;21.50;48.00;;;;;;5041480;28;20053;-51
2022/06/29 00:03:59;;;;;;;1.70;0.82;;;21.50;48.00;;;;;;5043451;28;20049;-51
2022/06/29 00:06:26;;;;;;;1.55;0.95;;;21.50;48.10;;;;;;5044584;28;20045;-51
2022/06/29 00:08:55;;;;;;;2.70;1.00;;;21.50;48.00;;;;;;5042451;28;20052;-49
2022/06/29 00:11:22;;;;;;;1.52;0.93;;;21.50;48.60;;;;;;5042532;28;20527;-54
2022/06/29 00:13:50;;;;;;;0.73;0.73;;;21.40;48.10;;;;;;5043179;28;20048;-50
2022/06/29 00:16:17;;;;;;;1.23;0.80;;;21.40;48.20;;;;;;5043311;28;20057;-48
2022/06/29 00:18:45;;;;;;;2.25;0.90;;;21.40;48.30;;;;;;5040708;28;20485;-53
2022/06/29 00:21:13;;;;;;;1.40;0.80;;;21.40;48.40;;;;;;5043854;28;20090;-53
2022/06/29 00:23:40;;;;;;;1.65;1.00;;;21.40;48.50;;;;;;5047084;28;20052;-51
2022/06/29 00:26:10;;;;;;;1.33;0.90;;;21.40;48.60;;;;;;5046605;28;20060;-49
2022/06/29 00:28:37;;;;;;;0.85;0.70;;;21.40;48.80;;;;;;5045955;28;20053;-50
2022/06/29 00:31:05;;;;;;;2.78;0.82;;;21.40;49.00;;;;;;5044456;28;20064;-52
2022/06/29 00:33:32;;;;;;;0.90;0.73;;;21.40;49.10;;;;;;5045184;28;20053;-51
2022/06/29 00:36:00;;;;;;;0.98;0.73;;;21.40;49.20;;;;;;5044470;28;20071;-52
2022/06/29 00:38:27;;;;;;;1.98;0.93;;;21.40;49.50;;;;;;5043690;28;20045;-53
2022/06/29 00:40:55;;;;;;;2.85;0.98;;;21.40;49.80;;;;;;5042911;28;20049;-52
2022/06/29 00:43:24;;;;;;;2.00;0.98;;;21.40;49.80;;;;;;5042767;28;20052;-52
2022/06/29 00:45:52;;;;;;;1.90;0.93;;;21.30;49.90;;;;;;5043740;28;20053;-52
2022/06/29 00:48:20;;;;;;;1.48;0.80;;;21.40;50.00;;;;;;5042087;28;20546;-52
2022/06/29 00:50:48;;;;;;;2.05;1.13;;;21.40;50.10;;;;;;5041634;28;20055;-50
2022/06/29 00:53:18;;;;;;;1.73;1.00;;;21.30;50.10;;;;;;5043165;28;20049;-52
2022/06/29 00:55:51;;;;;;;1.85;1.10;;;21.30;50.00;;;;;;5043007;28;20052;-50
2022/06/29 00:58:23;;;;;;;2.80;0.90;;;21.30;49.80;;;;;;5042501;28;20068;-54
2022/06/29 01:00:51;;;;;;;1.88;1.05;;;21.30;49.70;;;;;;5040871;28;20049;-53
2022/06/29 01:03:19;;;;;;;1.20;0.82;;;21.30;49.80;;;;;;5042095;28;20052;-54
2022/06/29 01:05:47;;;;;;;2.45;1.27;;;21.30;49.80;;;;;;5039437;28;20052;-52
2022/06/29 01:08:14;;;;;;;2.20;1.00;;;21.20;49.80;;;;;;5043105;28;20049;-53
2022/06/29 01:10:42;;;;;;;1.95;1.10;;;21.20;49.70;;;;;;5042456;28;20057;-54
2022/06/29 01:13:11;;;;;;;3.13;1.27;;;21.20;49.60;;;;;;5040743;28;20057;-55
2022/06/29 01:15:41;;;;;;;2.05;1.00;;;21.20;49.60;;;;;;5042070;28;20412;-51
2022/06/29 01:18:08;;;;;;;3.53;1.00;;;21.10;49.60;;;;;;5041853;28;20059;-52
2022/06/29 01:20:36;;;;;;;0.93;0.88;;;21.10;49.60;;;;;;5040905;28;20060;-53
2022/06/29 01:23:05;;;;;;;4.80;1.10;;;21.10;49.60;;;;;;5042950;28;20053;-53
2022/06/29 01:25:32;;;;;;;1.15;1.02;;;21.00;49.70;;;;;;5042816;28;20048;-56
2022/06/29 01:28:00;;;;;;;2.05;1.20;;;21.00;49.70;;;;;;5040901;28;20056;-53
2022/06/29 01:30:27;;;;;;;3.30;1.17;;;21.00;49.70;;;;;;5040420;28;20057;-53
2022/06/29 01:32:55;;;;;;;1.67;1.23;;;20.90;49.60;;;;;;5042752;28;20052;-54
2022/06/29 01:35:23;;;;;;;1.10;1.00;;;20.90;49.70;;;;;;5042454;28;20063;-52
2022/06/29 01:37:50;;;;;;;7.60;1.27;;;20.90;49.70;;;;;;5040515;28;20060;-52
2022/06/29 01:40:19;;;;;;;3.38;1.20;;;20.80;49.80;;;;;;5041962;28;20060;-52
2022/06/29 01:42:46;;;;;;;2.17;1.20;;;20.80;49.80;;;;;;5039738;28;20056;-50
2022/06/29 01:45:14;;;;;;;1.50;1.08;;;20.80;50.30;;;;;;5041485;28;20096;-53
2022/06/29 01:47:41;;;;;;;1.23;1.10;;;20.70;49.90;;;;;;5040508;28;20052;-51
2022/06/29 01:50:10;;;;;;;1.48;1.10;;;20.70;49.90;;;;;;5042062;28;20516;-53
2022/06/29 01:52:37;;;;;;;1.70;1.20;;;20.70;49.90;;;;;;5041691;28;20052;-51
2022/06/29 01:55:06;;;;;;;1.52;1.10;;;20.60;49.90;;;;;;5038297;28;20053;-53
2022/06/29 01:57:34;;;;;;;1.83;1.10;;;20.60;50.00;;;;;;5040766;28;20520;-54
2022/06/29 02:00:02;;;;;;;2.03;1.40;;;20.50;50.10;;;;;;5040241;28;20048;-54
2022/06/29 02:02:29;;;;;;;1.70;1.20;;;20.50;50.10;;;;;;5040505;28;20378;-53
2022/06/29 02:04:57;;;;;;;2.10;1.20;;;20.40;50.10;;;;;;5041619;28;20057;-53
2022/06/29 02:07:24;;;;;;;1.38;1.08;;;20.50;50.30;;;;;;5039897;28;20052;-52
2022/06/29 02:09:52;;;;;;;2.75;1.40;;;20.40;50.30;;;;;;5042697;28;20404;-52
2022/06/29 02:12:20;;;;;;;1.80;1.30;;;20.40;50.40;;;;;;5042373;28;20079;-52
2022/06/29 02:14:49;;;;;;;1.83;1.33;;;20.40;50.30;;;;;;5041587;28;20147;-54
2022/06/29 02:17:17;;;;;;;1.67;1.10;;;20.30;50.40;;;;;;5040687;28;20060;-56
2022/06/29 02:19:44;;;;;;;3.63;1.60;;;20.30;50.30;;;;;;5040730;28;20053;-54
2022/06/29 02:22:12;;;;;;;2.53;1.33;;;20.30;50.60;;;;;;5041278;28;20053;-54
2022/06/29 02:24:39;;;;;;;1.77;1.05;;;20.30;50.60;;;;;;5041992;28;20065;-52
2022/06/29 02:27:07;;;;;;;1.73;1.00;;;20.20;50.50;;;;;;5041131;28;20515;-53
2022/06/29 02:29:34;;;;;;;3.30;1.50;;;20.20;50.50;;;;;;5039899;28;20045;-54
2022/06/29 02:34:48;;;;;;;3.60;1.60;;;20.20;50.80;;;;;;5048118;28;20063;-55
2022/06/29 02:37:17;;;;;;;1.50;1.17;;;20.20;50.80;;;;;;5041635;28;20049;-54
2022/06/29 02:39:45;;;;;;;2.88;1.10;;;20.10;51.00;;;;;;5041749;28;20045;-56
2022/06/29 02:42:14;;;;;;;4.20;1.05;;;20.10;51.00;;;;;;5039066;28;20068;-54
2022/06/29 02:44:42;;;;;;;3.88;1.23;;;20.10;51.00;;;;;;5041073;28;20056;-56
2022/06/29 02:47:12;;;;;;;2.75;1.20;;;20.10;51.30;;;;;;5040656;28;20060;-54
2022/06/29 02:49:40;;;;;;;3.42;1.52;;;20.10;51.50;;;;;;5041888;28;20056;-51
2022/06/29 02:52:08;;;;;;;3.63;1.80;;;20.10;51.20;;;;;;5041836;28;20057;-53
2022/06/29 02:54:36;;;;;;;2.15;1.17;;;20.10;51.00;;;;;;5040747;28;20053;-52
2022/06/29 02:57:04;;;;;;;1.80;1.33;;;20.00;50.80;;;;;;5040753;28;20068;-52
2022/06/29 02:59:31;;;;;;;2.53;1.38;;;20.00;51.10;;;;;;5041084;28;20056;-52
2022/06/29 03:01:58;;;;;;;1.40;1.20;;;20.00;51.50;;;;;;5023502;28;20053;-52
2022/06/29 03:04:27;;;;;;;3.13;1.05;;;20.00;51.70;;;;;;5002710;28;20049;-54
2022/06/29 03:06:55;;;;;;;2.05;1.02;;;20.00;51.80;;;;;;5021653;28;20060;-53
2022/06/29 03:09:22;;;;;;;2.17;1.15;;;20.00;51.90;;;;;;5013732;28;20056;-54
2022/06/29 03:11:50;;;;;;;1.65;1.00;;;20.00;51.90;;;;;;5021575;28;20049;-53
2022/06/29 03:14:17;;;;;;;2.47;1.10;;;20.00;51.90;;;;;;5018847;28;20397;-56
2022/06/29 03:16:45;;;;;;;1.58;1.20;;;20.00;51.90;;;;;;5021029;28;20045;-50
2022/06/29 03:19:12;;;;;;;1.63;1.27;;;20.00;51.90;;;;;;5022344;28;20056;-52
2022/06/29 03:21:41;;;;;;;1.58;1.27;;;20.00;51.90;;;;;;5021509;28;20057;-53
2022/06/29 03:24:09;;;;;;;3.42;1.00;;;20.00;52.00;;;;;;5021647;28;20053;-51
2022/06/29 03:26:36;;;;;;;1.92;1.17;;;20.00;51.90;;;;;;5023628;28;20057;-52
2022/06/29 03:29:04;;;;;;;1.77;1.20;;;20.00;51.80;;;;;;5020398;28;20083;-54
2022/06/29 03:31:31;;;;;;;2.13;0.98;;;20.00;51.60;;;;;;5019544;28;20414;-53
2022/06/29 03:33:58;;;;;;;1.90;1.17;;;20.00;51.40;;;;;;5021685;28;20083;-53
2022/06/29 03:36:26;;;;;;;2.35;0.98;;;20.00;51.20;;;;;;5022367;28;20049;-54
2022/06/29 03:38:55;;;;;;;2.08;1.30;;;20.00;51.20;;;;;;5020537;28;20049;-54
2022/06/29 03:41:22;;;;;;;1.35;1.20;;;20.00;51.30;;;;;;5021789;28;20056;-54
2022/06/29 03:43:50;;;;;;;1.13;0.98;;;20.00;51.40;;;;;;5023315;28;20053;-54
2022/06/29 03:46:17;;;;;;;1.98;1.50;;;20.00;51.50;;;;;;5024652;28;20424;-52
2022/06/29 03:48:45;;;;;;;1.98;1.30;;;20.00;51.70;;;;;;5024603;28;20053;-52
2022/06/29 03:51:12;;;;;;;2.00;1.20;;;20.00;51.90;;;;;;5024301;28;20056;-56
2022/06/29 03:53:39;;;;;;;2.80;1.63;;;20.00;51.90;;;;;;5026019;28;20049;-51
2022/06/29 03:56:08;;;;;;;5.35;1.15;;;20.00;51.90;;;;;;5025183;28;20094;-56
2022/06/29 03:58:36;;;;;;;2.13;1.20;;;20.00;52.00;;;;;;5020509;28;20572;-51
2022/06/29 04:01:03;;;;;;;1.38;1.10;;;20.00;52.10;;;;;;5022861;28;20057;-54
2022/06/29 04:03:31;;;;;;;1.35;1.17;;;20.00;52.20;;;;;;5021977;28;20053;-52
2022/06/29 04:05:58;;;;;;;2.38;1.05;;;20.00;52.20;;;;;;5025331;28;20493;-56
2022/06/29 04:08:26;;;;;;;1.48;1.13;;;20.00;52.20;;;;;;5023821;28;20045;-52
2022/06/29 04:10:53;;;;;;;3.58;1.40;;;20.10;52.40;;;;;;5024454;28;20416;-53
2022/06/29 04:13:23;;;;;;;2.00;1.20;;;20.10;52.40;;;;;;5024720;28;20509;-54
2022/06/29 04:15:51;;;;;;;2.30;1.40;;;20.10;52.30;;;;;;5022342;28;20057;-53
2022/06/29 04:18:18;;;;;;;4.50;1.73;;;20.10;52.30;;;;;;5019622;28;20057;-49
2022/06/29 04:23:29;;;;;;;1.25;1.02;;;20.10;52.40;;;;;;5019301;28;20049;-51
2022/06/29 04:25:57;;;;;;;2.53;1.35;;;20.10;52.40;;;;;;5023284;28;20061;-56
2022/06/29 04:28:26;;;;;;;3.20;1.05;;;20.10;52.50;;;;;;5023104;28;20049;-53
2022/06/29 04:30:53;;;;;;;1.55;1.27;;;20.10;52.70;;;;;;5022886;28;20052;-52
2022/06/29 04:33:20;;;;;;;4.07;2.05;;;20.10;52.80;;;;;;5024446;28;20057;-52
2022/06/29 04:35:48;;;;;;;19.25;11.68;;;20.10;52.70;;;;;;5023752;28;20437;-52
2022/06/29 04:38:15;;;;;;;9.25;5.70;;;20.10;52.80;;;;;;5024461;28;20520;-56
2022/06/29 04:40:43;;;;;;;3.95;2.40;;;20.20;53.00;;;;;;5022149;28;20053;-53
2022/06/29 04:43:10;;;;;;;2.00;1.77;;;20.10;53.00;;;;;;5024545;28;20049;-54
2022/06/29 04:48:23;;;;;;;2.20;1.40;;;20.20;53.20;;;;;;5018363;28;20504;-52
2022/06/29 04:50:51;;;;;;;2.88;1.15;;;20.20;53.20;;;;;;5024577;28;20052;-53
2022/06/29 04:53:18;;;;;;;4.15;1.23;;;20.20;53.10;;;;;;5022432;28;20468;-53
2022/06/29 04:55:45;;;;;;;5.20;1.50;;;20.20;53.20;;;;;;5021278;28;20060;-53
2022/06/29 04:58:13;;;;;;;4.50;1.30;;;20.30;53.70;;;;;;5023658;28;20413;-53
2022/06/29 05:00:42;;;;;;;1.48;1.00;;;20.20;53.20;;;;;;5021999;28;20087;-54
2022/06/29 05:03:09;;;;;;;1.67;1.30;;;20.20;53.20;;;;;;5024916;28;20416;-52
2022/06/29 05:05:37;;;;;;;3.60;2.15;;;20.30;53.00;;;;;;5021871;28;20064;-52
2022/06/29 05:08:04;;;;;;;11.77;5.38;;;20.30;53.00;;;;;;5023593;28;20507;-52
2022/06/29 05:10:32;;;;;;;8.30;4.82;;;20.20;53.10;;;;;;5021244;28;20053;-52
2022/06/29 05:12:59;;;;;;;4.60;2.75;;;20.30;53.00;;;;;;5023837;28;20402;-55
2022/06/29 05:15:27;;;;;;;6.03;2.08;;;20.30;52.90;;;;;;5022678;28;20417;-56
2022/06/29 05:17:56;;;;;;;2.95;1.60;;;20.30;52.90;;;;;;5023244;28;20080;-53
2022/06/29 05:20:23;;;;;;;1.90;1.10;;;20.40;53.10;;;;;;5023342;28;20056;-56
2022/06/29 05:22:52;;;;;;;3.47;1.20;;;20.40;53.10;;;;;;5022744;28;20049;-51
2022/06/29 05:25:20;;;;;;;1.70;1.13;;;20.40;53.10;;;;;;5022585;28;20456;-54
2022/06/29 05:27:47;;;;;;;2.25;1.30;;;20.50;53.10;;;;;;5023270;28;20409;-51
2022/06/29 05:30:15;;;;;;;3.33;1.30;;;20.50;53.10;;;;;;5022213;28;20493;-53
2022/06/29 05:32:43;;;;;;;4.57;1.48;;;20.50;53.20;;;;;;5020841;28;20064;-53
2022/06/29 05:35:13;;;;;;;2.00;1.00;;;20.50;53.20;;;;;;5023313;28;20053;-52
2022/06/29 05:37:40;;;;;;;2.92;1.38;;;20.60;53.20;;;;;;5023818;28;20049;-54
2022/06/29 05:40:08;;;;;;;2.90;1.63;;;20.60;53.20;;;;;;5022515;28;20520;-53
2022/06/29 05:42:36;;;;;;;1.70;1.25;;;20.60;53.10;;;;;;5021321;28;20069;-52
2022/06/29 05:45:05;;;;;;;2.72;1.52;;;20.60;53.10;;;;;;5022152;28;20061;-56
2022/06/29 05:47:32;;;;;;;2.22;1.35;;;20.60;53.10;;;;;;5022204;28;20053;-53
2022/06/29 05:50:00;;;;;;;1.58;1.20;;;20.60;53.10;;;;;;5022832;28;20049;-53
2022/06/29 05:52:29;;;;;;;1.52;1.25;;;20.60;53.00;;;;;;5022218;28;20053;-51
2022/06/29 05:54:58;;;;;;;3.63;1.40;;;20.60;53.20;;;;;;5022209;28;20052;-54
2022/06/29 05:57:26;;;;;;;3.20;1.40;;;20.60;53.30;;;;;;5021903;28;20049;-52
2022/06/29 05:59:53;;;;;;;1.92;1.30;;;20.70;53.40;;;;;;5020549;28;20057;-51
2022/06/29 06:02:21;;;;;;;2.22;1.45;;;20.70;53.50;;;;;;5016775;28;20053;-51
2022/06/29 06:04:48;;;;;;;2.35;1.40;;;20.70;53.50;;;;;;5023616;28;20382;-53
2022/06/29 06:07:15;;;;;;;3.10;1.50;;;20.70;53.50;;;;;;5020380;28;20489;-51
2022/06/29 06:09:44;;;;;;;3.55;1.17;;;20.70;53.60;;;;;;5021394;28;20072;-54
2022/06/29 06:12:12;;;;;;;3.33;1.50;;;20.70;53.50;;;;;;5020664;28;20390;-54
2022/06/29 06:14:40;;;;;;;1.60;1.33;;;20.70;53.50;;;;;;5021697;28;20045;-50
2022/06/29 06:17:07;;;;;;;2.28;1.17;;;20.80;53.60;;;;;;5020255;28;20058;-54
2022/06/29 06:19:34;;;;;;;2.10;1.30;;;20.80;53.60;;;;;;5020834;28;21213;-52
2022/06/29 06:22:02;;;;;;;1.88;1.40;;;20.80;53.60;;;;;;5021903;28;20053;-53
2022/06/29 06:24:29;;;;;;;4.28;1.63;;;20.80;53.60;;;;;;5022585;28;20057;-52
2022/06/29 06:26:58;;;;;;;2.17;1.60;;;20.80;53.70;;;;;;5022041;28;20060;-53
2022/06/29 06:29:26;;;;;;;1.85;1.20;;;20.80;53.80;;;;;;5021405;28;20048;-53
2022/06/29 06:31:53;;;;;;;3.65;1.83;;;20.80;53.80;;;;;;5019244;28;20057;-51
2022/06/29 06:34:22;;;;;;;1.77;1.33;;;20.80;53.90;;;;;;5022130;28;20489;-54
2022/06/29 06:36:50;;;;;;;2.08;1.20;;;20.80;53.80;;;;;;5022538;28;20076;-53
2022/06/29 06:39:17;;;;;;;1.67;1.23;;;20.90;53.70;;;;;;5019675;28;20049;-54
2022/06/29 06:41:43;;;;;;;3.58;1.33;;;20.90;53.70;;;;;;5021515;28;20054;-52
2022/06/29 06:44:12;;;;;;;4.32;1.40;;;20.90;53.70;;;;;;5019946;28;20414;-52
2022/06/29 06:46:41;;;;;;;1.67;1.48;;;20.90;53.80;;;;;;5019610;28;20061;-56
2022/06/29 06:49:09;;;;;;;1.65;1.30;;;20.90;53.80;;;;;;5021805;28;20057;-52
2022/06/29 06:51:37;;;;;;;2.47;1.30;;;21.00;54.00;;;;;;5022116;28;20048;-53
2022/06/29 06:54:05;;;;;;;2.42;1.60;;;21.00;54.00;;;;;;5025901;28;20061;-56
2022/06/29 06:56:32;;;;;;;2.15;1.20;;;21.00;53.90;;;;;;5022815;28;20053;-54
2022/06/29 06:58:59;;;;;;;2.40;1.20;;;21.00;53.80;;;;;;5024550;28;20052;-49
2022/06/29 07:01:29;;;;;;;1.70;1.30;;;21.00;53.70;;;;;;5024324;28;20523;-51
2022/06/29 07:03:56;;;;;;;4.47;1.38;;;21.10;53.60;;;;;;5020892;28;20060;-54
2022/06/29 07:06:24;;;;;;;1.70;1.20;;;21.10;53.70;;;;;;5022628;28;20048;-53
2022/06/29 07:08:53;;;;;;;3.72;1.30;;;21.10;53.50;;;;;;5023653;28;20049;-51
2022/06/29 07:11:21;;;;;;;1.60;1.42;;;21.20;53.50;;;;;;5021121;28;20057;-56
2022/06/29 07:13:49;;;;;;;2.05;1.20;;;21.20;53.70;;;;;;5022413;28;20489;-52
2022/06/29 07:16:16;;;;;;;1.48;1.20;;;21.20;54.10;;;;;;5023936;28;20056;-50
2022/06/29 07:18:45;;;;;;;4.13;1.60;;;21.20;54.00;;;;;;5026467;28;20063;-52
2022/06/29 07:21:13;;;;;;;2.97;1.30;;;21.30;54.00;;;;;;5024887;28;20658;-50
2022/06/29 07:23:40;;;;;;;1.83;1.20;;;21.30;54.00;;;;;;5025952;28;20049;-52
2022/06/29 07:26:08;;;;;;;3.25;1.67;;;21.30;54.00;;;;;;5026265;28;20057;-54
2022/06/29 07:28:35;;;;;;;3.40;1.48;;;21.30;54.10;;;;;;5023049;28;20694;-53
2022/06/29 07:31:03;;;;;;;1.40;1.30;;;21.30;54.10;;;;;;5023546;28;20061;-54
2022/06/29 07:33:30;;;;;;;1.42;1.30;;;21.30;54.10;;;;;;5024084;28;20068;-50
2022/06/29 07:35:59;;;;;;;4.97;1.60;;;21.40;54.20;;;;;;5023986;28;20526;-53
2022/06/29 07:38:27;;;;;;;2.20;1.27;;;21.40;54.30;;;;;;5024818;28;20053;-54
2022/06/29 07:40:54;;;;;;;2.83;1.48;;;21.40;54.10;;;;;;5021787;28;20057;-53
2022/06/29 07:43:22;;;;;;;6.85;1.67;;;21.40;54.00;;;;;;5022664;28;20409;-55
2022/06/29 07:45:49;;;;;;;2.83;1.60;;;21.40;53.70;;;;;;5023076;28;20057;-56
2022/06/29 07:48:18;;;;;;;2.80;1.40;;;21.50;53.60;;;;;;5023684;28;20060;-55
2022/06/29 07:50:45;;;;;;;1.40;1.30;;;21.50;53.60;;;;;;5023498;28;20699;-56
2022/06/29 07:53:14;;;;;;;1.65;1.40;;;21.50;53.70;;;;;;5026471;28;20057;-54
2022/06/29 07:55:44;;;;;;;2.50;1.45;;;21.50;53.90;;;;;;5024485;28;20045;-54
2022/06/29 07:58:12;;;;;;;2.25;1.50;;;21.50;54.00;;;;;;5024808;28;20053;-55
2022/06/29 08:00:40;;;;;;;1.90;1.40;;;21.50;53.90;;;;;;5022211;28;20065;-52
2022/06/29 08:03:08;;;;;;;7.82;1.60;;;21.60;53.80;;;;;;5025408;28;20394;-54
2022/06/29 08:05:36;;;;;;;1.80;1.33;;;21.50;53.60;;;;;;5023543;28;20064;-51
2022/06/29 08:08:04;;;;;;;2.85;1.65;;;21.60;53.70;;;;;;5022688;28;20056;-54
2022/06/29 08:10:34;;;;;;;4.00;1.75;;;21.60;53.50;;;;;;5023753;28;20057;-50
2022/06/29 08:13:02;;;;;;;3.83;2.10;;;21.60;53.40;;;;;;5025360;28;20052;-53
2022/06/29 08:15:30;;;;;;;1.42;1.00;;;21.60;53.10;;;;;;5023523;28;20624;-53
2022/06/29 08:17:58;;;;;;;5.10;1.90;;;21.70;52.90;;;;;;5023977;28;20052;-52
2022/06/29 08:20:28;;;;;;;2.90;1.55;;;21.70;53.20;;;;;;5023949;28;20057;-53
2022/06/29 08:22:56;;;;;;;3.35;1.65;;;21.70;53.40;;;;;;5024771;28;20053;-53
2022/06/29 08:25:23;;;;;;;2.08;1.42;;;21.80;53.20;;;;;;5025305;28;20066;-54
2022/06/29 08:27:53;;;;;;;2.58;1.45;;;21.80;52.90;;;;;;5023410;28;20124;-54
2022/06/29 08:30:21;;;;;;;1.95;1.40;;;21.90;52.90;;;;;;5022020;28;20803;-54
2022/06/29 08:32:49;;;;;;;5.40;2.00;;;21.90;52.80;;;;;;5023209;28;20064;-53
2022/06/29 08:35:18;;;;;;;4.55;1.85;;;22.00;52.80;;;;;;5023478;28;20064;-54
2022/06/29 08:37:46;;;;;;;2.95;1.70;;;22.00;52.90;;;;;;5023192;28;20439;-56
2022/06/29 08:40:15;;;;;;;3.00;1.42;;;22.10;52.80;;;;;;5024933;28;20053;-54
2022/06/29 08:42:45;;;;;;;1.60;1.50;;;22.10;52.70;;;;;;5020919;28;20053;-53
2022/06/29 08:45:15;;;;;;;2.00;1.60;;;22.20;52.80;;;;;;5022886;28;20152;-54
2022/06/29 08:47:42;;;;;;;1.73;1.30;;;22.20;52.60;;;;;;5022482;28;20049;-53
2022/06/29 08:50:12;;;;;;;1.75;1.30;;;22.30;52.50;;;;;;5021099;28;20068;-51
2022/06/29 08:52:41;;;;;;;1.83;1.60;;;22.30;52.50;;;;;;5022081;28;20065;-52
2022/06/29 08:55:10;;;;;;;2.03;1.55;;;22.30;52.50;;;;;;5024652;28;20061;-49
2022/06/29 08:57:37;;;;;;;4.47;1.70;;;22.40;52.70;;;;;;5023235;28;20052;-51
2022/06/29 09:00:07;;;;;;;1.75;1.50;;;22.40;52.70;;;;;;5022139;28;20068;-55
2022/06/29 09:02:36;;;;;;;3.13;1.40;;;22.40;52.50;;;;;;5022875;28;20056;-53
2022/06/29 09:05:04;;;;;;;3.10;1.70;;;22.50;52.50;;;;;;5023832;28;20053;-54
2022/06/29 09:07:32;;;;;;;2.53;1.73;;;22.50;52.30;;;;;;5023206;28;20053;-51
2022/06/29 09:10:05;;;;;;;1.50;1.30;;;22.50;52.20;;;;;;5022894;28;20386;-52
2022/06/29 09:12:33;;;;;;;3.05;2.10;;;22.50;52.20;;;;;;5021233;28;20049;-55
2022/06/29 09:15:01;;;;;;;2.60;1.50;;;22.50;52.50;;;;;;5024062;28;20068;-52
2022/06/29 09:17:32;;;;;;;3.42;1.70;;;22.60;52.60;;;;;;5019341;28;20119;-55
2022/06/29 09:20:01;;;;;;;1.92;1.50;;;22.60;52.40;;;;;;5021633;28;20060;-54
2022/06/29 09:22:29;;;;;;;2.85;1.85;;;22.60;52.60;;;;;;5022516;28;20049;-54
2022/06/29 09:24:56;;;;;;;3.67;2.00;;;22.60;52.90;;;;;;5023494;28;20061;-53
2022/06/29 09:27:26;;;;;;;2.72;1.70;;;22.60;53.10;;;;;;5023179;28;20117;-54
2022/06/29 09:29:53;;;;;;;2.65;1.52;;;22.60;53.20;;;;;;5022440;28;20045;-52
2022/06/29 09:32:24;;;;;;;1.40;1.27;;;22.60;52.90;;;;;;5020189;28;20053;-52
2022/06/29 09:34:53;;;;;;;2.00;1.67;;;22.60;52.70;;;;;;5023513;28;20512;-52
2022/06/29 09:37:23;;;;;;;2.28;1.70;;;22.70;52.90;;;;;;5022224;28;20060;-50
2022/06/29 09:39:52;;;;;;;2.17;1.65;;;22.70;52.70;;;;;;5022831;28;20386;-55
2022/06/29 09:42:21;;;;;;;1.90;1.30;;;22.70;52.60;;;;;;5020063;28;20072;-49
2022/06/29 09:44:49;;;;;;;2.45;1.60;;;22.70;52.50;;;;;;5021892;28;20485;-53
2022/06/29 09:47:19;;;;;;;2.10;1.55;;;22.80;52.10;;;;;;5019178;28;20076;-53
2022/06/29 09:49:48;;;;;;;2.88;1.30;;;22.80;52.20;;;;;;5022385;28;20061;-51
2022/06/29 09:52:16;;;;;;;2.00;1.58;;;22.90;52.30;;;;;;5020616;28;20049;-51
2022/06/29 09:54:50;;;;;;;2.88;1.45;;;22.90;52.50;;;;;;5022462;28;20050;-51
2022/06/29 09:57:21;;;;;;;2.47;1.60;;;22.90;52.60;;;;;;5021662;28;20060;-52
2022/06/29 10:02:39;;;;;;;2.70;1.60;;;23.00;52.80;;;;;;5027437;28;20072;-54
2022/06/29 10:05:09;;;;;;;3.30;1.95;;;23.00;52.90;;;;;;5021914;28;20064;-56
2022/06/29 10:07:38;;;;;;;2.03;1.80;;;23.10;53.00;;;;;;5021994;28;20696;-56
2022/06/29 10:10:10;;;;;;;3.10;1.42;;;23.10;53.00;;;;;;5021827;28;20417;-50
2022/06/29 10:16:10;;;;;;;3.38;1.63;;;23.10;52.80;;;;;;5027347;28;20072;-53
2022/06/29 10:18:55;;;;;;;3.63;1.80;;;23.20;52.60;;;;;;5023148;28;20436;-52
2022/06/29 10:21:25;;;;;;;2.92;1.73;;;23.20;52.40;;;;;;5021814;28;20079;-53
2022/06/29 10:23:54;;;;;;;2.53;1.80;;;23.20;52.50;;;;;;5021569;28;20061;-52
2022/06/29 10:26:43;;;;;;;3.35;1.50;;;23.30;52.40;;;;;;5022325;28;20382;-54
2022/06/29 10:29:32;;;;;;;3.60;1.70;;;23.30;52.40;;;;;;5022031;28;20049;-50
2022/06/29 10:32:08;;;;;;;1.75;1.40;;;23.40;51.60;;;;;;5021803;28;20049;-52
2022/06/29 10:35:04;;;;;;;2.60;1.55;;;23.50;51.60;;;;;;5022995;28;20421;-49
2022/06/29 10:37:30;;;;;;;1.73;1.60;;;23.50;51.80;;;;;;5021986;28;20060;-52
2022/06/29 10:40:00;;;;;;;4.43;1.77;;;23.60;51.50;;;;;;5022250;28;20057;-54
2022/06/29 10:45:34;;;;;;;3.20;1.80;;;23.70;51.20;;;;;;5020267;28;20068;-54
2022/06/29 10:48:17;;;;;;;5.10;1.67;;;23.80;51.10;;;;;;5018867;28;20049;-51
2022/06/29 10:50:46;;;;;;;1.60;1.50;;;23.80;51.10;;;;;;5018457;28;20057;-45
2022/06/29 10:53:16;;;;;;;5.38;2.10;;;23.90;51.10;;;;;;5024794;28;20049;-48
2022/06/29 10:55:45;;;;;;;2.22;1.80;;;23.90;51.00;;;;;;5025929;28;20416;-53
2022/06/29 10:58:14;;;;;;;2.95;2.20;;;24.00;50.70;;;;;;5025294;28;20061;-55
2022/06/29 11:00:44;;;;;;;2.42;1.83;;;24.00;50.80;;;;;;5023941;28;20064;-53
2022/06/29 11:03:14;;;;;;;3.33;2.00;;;24.00;50.30;;;;;;5025391;28;20060;-50
2022/06/29 11:14:01;;;;;;;4.05;1.73;;;24.10;50.60;;;;;;5030167;28;20053;-51
2022/06/29 11:16:31;;;;;;;2.15;1.83;;;24.10;50.60;;;;;;5024791;28;20056;-53
2022/06/29 11:18:59;;;;;;;2.65;1.88;;;24.20;50.70;;;;;;5025397;28;20408;-51
2022/06/29 11:21:29;;;;;;;3.83;2.13;;;24.20;50.20;;;;;;5021973;28;20064;-53
2022/06/29 11:24:02;;;;;;;8.13;2.22;;;24.20;50.00;;;;;;5023798;28;20396;-55
2022/06/29 11:26:31;;;;;;;3.50;1.80;;;24.20;49.70;;;;;;5024284;28;20057;-56
2022/06/29 11:29:00;;;;;;;2.38;2.08;;;24.20;49.50;;;;;;5023476;28;20057;-54
2022/06/29 11:31:27;;;;;;;3.22;2.35;;;24.30;49.50;;;;;;5023908;28;20057;-55
2022/06/29 11:33:56;;;;;;;3.15;2.20;;;24.40;49.80;;;;;;5024988;28;20061;-50
2022/06/29 11:36:26;;;;;;;2.83;1.85;;;24.40;49.70;;;;;;5025187;28;20065;-52
2022/06/29 11:38:55;;;;;;;6.65;2.13;;;24.40;49.60;;;;;;5024525;28;20053;-48
2022/06/29 11:41:26;;;;;;;4.55;2.25;;;24.50;49.40;;;;;;5024754;28;20058;-53
2022/06/29 11:44:06;;;;;;;2.83;2.58;;;24.50;49.30;;;;;;5024113;28;20045;-53
2022/06/29 11:46:35;;;;;;;2.42;1.95;;;24.60;48.80;;;;;;5024818;28;20429;-51
2022/06/29 11:51:50;;;;;;;3.95;2.22;;;24.70;49.60;;;;;;5030533;28;20516;-54
2022/06/29 11:54:18;;;;;;;2.60;2.22;;;24.70;49.50;;;;;;5024849;28;20053;-53
2022/06/29 11:56:46;;;;;;;3.30;2.30;;;24.80;49.50;;;;;;5023850;28;20068;-52
2022/06/29 11:59:17;;;;;;;3.17;2.55;;;24.80;49.40;;;;;;5023560;28;20056;-50
2022/06/29 12:01:54;;;;;;;4.03;2.30;;;24.90;49.30;;;;;;5024353;28;20409;-54
2022/06/29 12:04:29;;;;;;;3.35;2.38;;;24.90;49.40;;;;;;5022354;28;20045;-49
2022/06/29 12:07:05;;;;;;;3.65;2.53;;;25.00;49.30;;;;;;5024149;28;20504;-48
2022/06/29 12:09:33;;;;;;;3.70;2.30;;;25.10;49.20;;;;;;5023984;28;20076;-44
2022/06/29 12:12:01;;;;;;;4.63;2.90;;;25.10;49.30;;;;;;5023042;28;20061;-53
2022/06/29 12:14:30;;;;;;;3.58;2.70;;;25.20;49.00;;;;;;5023782;28;20057;-53
2022/06/29 12:16:57;;;;;;;4.93;3.22;;;25.30;49.40;;;;;;5024220;28;20394;-52
2022/06/29 12:19:25;;;;;;;5.40;2.90;;;25.30;49.30;;;;;;5024189;28;20060;-49
2022/06/29 12:21:53;;;;;;;3.10;2.42;;;25.30;49.20;;;;;;5024595;28;20053;-49
2022/06/29 12:24:21;;;;;;;5.10;2.88;;;25.40;49.40;;;;;;5023871;28;20053;-55
2022/06/29 12:26:49;;;;;;;3.55;2.90;;;25.40;49.50;;;;;;5023880;28;20061;-50
2022/06/29 12:29:16;;;;;;;6.82;3.47;;;25.40;49.40;;;;;;5023702;28;20049;-48
2022/06/29 12:31:45;;;;;;;6.30;2.85;;;25.40;49.60;;;;;;5023334;28;20523;-48
2022/06/29 12:34:14;;;;;;;2.97;2.67;;;25.50;49.70;;;;;;5023678;28;20060;-48
2022/06/29 12:36:42;;;;;;;3.60;3.25;;;25.50;49.50;;;;;;5024701;28;20057;-49
2022/06/29 12:39:10;;;;;;;3.65;3.15;;;25.50;49.70;;;;;;5024246;28;20064;-49
2022/06/29 12:41:38;;;;;;;5.38;3.50;;;25.50;49.10;;;;;;5023212;28;20060;-48
2022/06/29 12:44:06;;;;;;;3.92;3.22;;;25.50;48.70;;;;;;5022938;28;20052;-48
2022/06/29 12:46:34;;;;;;;4.28;3.38;;;25.50;48.40;;;;;;5023033;28;20061;-49
2022/06/29 12:49:03;;;;;;;3.20;2.90;;;25.50;48.30;;;;;;5022367;28;20070;-51
2022/06/29 12:51:31;;;;;;;7.10;3.78;;;25.50;48.30;;;;;;5022538;28;20068;-50
2022/06/29 12:53:59;;;;;;;4.55;2.95;;;25.50;48.50;;;;;;5023002;28;20063;-45
2022/06/29 12:56:27;;;;;;;3.90;3.15;;;25.50;48.60;;;;;;5024066;28;20064;-47
2022/06/29 12:58:54;;;;;;;3.63;2.88;;;25.60;48.60;;;;;;5023101;28;20503;-49
2022/06/29 13:01:22;;;;;;;4.22;3.22;;;25.60;48.30;;;;;;5022691;28;20046;-49
2022/06/29 13:03:50;;;;;;;8.50;3.92;;;25.60;48.00;;;;;;5022665;28;20053;-47
2022/06/29 13:06:19;;;;;;;3.88;3.17;;;25.60;48.20;;;;;;5023632;28;20068;-46
2022/06/29 13:08:46;;;;;;;4.60;3.17;;;25.60;49.10;;;;;;5020945;28;20401;-45
2022/06/29 13:11:14;;;;;;;3.88;3.05;;;25.70;48.50;;;;;;5020342;28;20057;-46
2022/06/29 13:13:41;;;;;;;4.05;3.50;;;25.70;48.40;;;;;;5023193;28;20053;-45
2022/06/29 13:16:09;;;;;;;3.42;3.05;;;25.70;48.30;;;;;;5022345;28;20061;-45
2022/06/29 13:18:38;;;;;;;5.43;3.60;;;25.80;48.00;;;;;;5019614;28;20049;-46
2022/06/29 13:21:06;;;;;;;3.85;3.15;;;25.80;48.20;;;;;;5020436;28;20424;-43